sensor_id;sensor_type;location;lat;lon;timestamp;temperature;humidity
39277;DHT22;24981;48.086;-1.686;2022-08-19T05:02:25;19.20;99.90
39277;DHT22;24981;48.086;-1.686;2022-08-19T05:04:57;19.10;99.90
39277;DHT22;24981;48.086;-1.686;2022-08-19T05:07:26;19.10;99.90
39277;DHT22;24981;48.086;-1.686;2022-08-19T05:09:53;19.10;99.90
39277;DHT22;24981;48.086;-1.686;2022-08-19T05:12:20;19.10;99.90
39277;DHT22;24981;48.086;-1.686;2022-08-19T05:14:47;19.20;99.90
39277;DHT22;24981;48.086;-1.686;2022-08-19T05:17:15;19.10;99.90
39277;DHT22;24981;48.086;-1.686;2022-08-19T05:19:43;19.10;99.90
39277;DHT22;24981;48.086;-1.686;2022-08-19T05:22:28;19.10;99.90
39277;DHT22;24981;48.086;-1.686;2022-08-19T05:25:04;19.10;99.90
39277;DHT22;24981;48.086;-1.686;2022-08-19T05:27:32;19.10;99.90
39277;DHT22;24981;48.086;-1.686;2022-08-19T05:29:58;19.20;99.90
39277;DHT22;24981;48.086;-1.686;2022-08-19T05:32:27;19.10;99.90
39277;DHT22;24981;48.086;-1.686;2022-08-19T05:34:55;19.20;99.90
39277;DHT22;24981;48.086;-1.686;2022-08-19T05:37:22;19.20;99.90
39277;DHT22;24981;48.086;-1.686;2022-08-19T05:39:52;19.20;99.90
39277;DHT22;24981;48.086;-1.686;2022-08-19T05:42:20;19.30;99.90
39277;DHT22;24981;48.086;-1.686;2022-08-19T05:44:49;19.20;99.90
39277;DHT22;24981;48.086;-1.686;2022-08-19T05:47:16;19.20;99.90
39277;DHT22;24981;48.086;-1.686;2022-08-19T05:49:45;19.20;99.90
39277;DHT22;24981;48.086;-1.686;2022-08-19T05:52:14;19.20;99.90
39277;DHT22;24981;48.086;-1.686;2022-08-19T05:54:42;19.20;99.90
39277;DHT22;24981;48.086;-1.686;2022-08-19T05:57:13;19.20;99.90
39277;DHT22;24981;48.086;-1.686;2022-08-19T05:59:40;19.20;99.90
39277;DHT22;24981;48.086;-1.686;2022-08-19T06:02:07;19.20;99.90
39277;DHT22;24981;48.086;-1.686;2022-08-19T06:04:34;19.20;99.90
39277;DHT22;24981;48.086;-1.686;2022-08-19T06:07:01;19.20;99.90
39277;DHT22;24981;48.086;-1.686;2022-08-19T06:09:30;19.20;99.90
39277;DHT22;24981;48.086;-1.686;2022-08-19T06:11:58;19.20;99.90
39277;DHT22;24981;48.086;-1.686;2022-08-19T06:14:27;19.20;99.90
39277;DHT22;24981;48.086;-1.686;2022-08-19T06:16:55;19.20;99.90
39277;DHT22;24981;48.086;-1.686;2022-08-19T06:19:22;19.20;99.90
39277;DHT22;24981;48.086;-1.686;2022-08-19T06:21:51;19.20;99.90
39277;DHT22;24981;48.086;-1.686;2022-08-19T06:24:20;19.20;99.90
39277;DHT22;24981;48.086;-1.686;2022-08-19T06:26:52;19.20;99.90
39277;DHT22;24981;48.086;-1.686;2022-08-19T06:29:21;19.20;99.90
39277;DHT22;24981;48.086;-1.686;2022-08-19T06:31:51;19.20;99.90
39277;DHT22;24981;48.086;-1.686;2022-08-19T06:34:18;19.20;99.90
39277;DHT22;24981;48.086;-1.686;2022-08-19T06:36:48;19.20;99.90
39277;DHT22;24981;48.086;-1.686;2022-08-19T06:39:20;19.30;99.90
39277;DHT22;24981;48.086;-1.686;2022-08-19T06:41:51;19.20;99.90
39277;DHT22;24981;48.086;-1.686;2022-08-19T06:44:19;19.20;99.90
39277;DHT22;24981;48.086;-1.686;2022-08-19T06:46:47;19.20;99.90
39277;DHT22;24981;48.086;-1.686;2022-08-19T06:49:14;19.30;99.90
39277;DHT22;24981;48.086;-1.686;2022-08-19T06:51:42;19.40;99.90
39277;DHT22;24981;48.086;-1.686;2022-08-19T06:54:10;19.40;99.90
39277;DHT22;24981;48.086;-1.686;2022-08-19T06:56:37;19.40;99.90
39277;DHT22;24981;48.086;-1.686;2022-08-19T06:59:08;19.50;99.90
39277;DHT22;24981;48.086;-1.686;2022-08-19T07:01:36;19.50;99.90
39277;DHT22;24981;48.086;-1.686;2022-08-19T07:04:05;19.60;99.90
39277;DHT22;24981;48.086;-1.686;2022-08-19T07:06:32;19.50;99.90
39277;DHT22;24981;48.086;-1.686;2022-08-19T07:08:59;19.50;99.90
39277;DHT22;24981;48.086;-1.686;2022-08-19T07:11:26;19.60;99.90
39277;DHT22;24981;48.086;-1.686;2022-08-19T07:13:53;19.60;99.90
39277;DHT22;24981;48.086;-1.686;2022-08-19T07:16:22;19.60;99.90
39277;DHT22;24981;48.086;-1.686;2022-08-19T07:18:50;19.70;99.90
39277;DHT22;24981;48.086;-1.686;2022-08-19T07:21:21;19.70;99.90
39277;DHT22;24981;48.086;-1.686;2022-08-19T07:23:48;19.70;99.90
39277;DHT22;24981;48.086;-1.686;2022-08-19T07:26:17;19.70;99.90
39277;DHT22;24981;48.086;-1.686;2022-08-19T07:28:46;19.70;99.90
39277;DHT22;24981;48.086;-1.686;2022-08-19T07:31:15;19.80;99.90
39277;DHT22;24981;48.086;-1.686;2022-08-19T07:33:45;19.80;99.90
39277;DHT22;24981;48.086;-1.686;2022-08-19T07:36:14;19.90;99.90
39277;DHT22;24981;48.086;-1.686;2022-08-19T07:38:45;19.90;99.90
39277;DHT22;24981;48.086;-1.686;2022-08-19T07:41:20;20.00;99.90
39277;DHT22;24981;48.086;-1.686;2022-08-19T07:43:48;20.00;99.90
39277;DHT22;24981;48.086;-1.686;2022-08-19T07:46:17;20.00;99.90
39277;DHT22;24981;48.086;-1.686;2022-08-19T07:48:48;20.10;99.90
39277;DHT22;24981;48.086;-1.686;2022-08-19T07:51:19;20.20;99.90
39277;DHT22;24981;48.086;-1.686;2022-08-19T07:53:47;20.20;99.90
39277;DHT22;24981;48.086;-1.686;2022-08-19T07:56:16;20.30;99.90
39277;DHT22;24981;48.086;-1.686;2022-08-19T07:58:45;20.40;99.90
39277;DHT22;24981;48.086;-1.686;2022-08-19T08:01:14;20.40;99.90
39277;DHT22;24981;48.086;-1.686;2022-08-19T08:03:41;20.40;99.90
39277;DHT22;24981;48.086;-1.686;2022-08-19T08:06:27;20.40;99.90
39277;DHT22;24981;48.086;-1.686;2022-08-19T08:09:13;20.40;99.90
39277;DHT22;24981;48.086;-1.686;2022-08-19T08:11:48;20.40;99.90
39277;DHT22;24981;48.086;-1.686;2022-08-19T08:14:16;20.50;99.90
39277;DHT22;24981;48.086;-1.686;2022-08-19T08:16:43;20.60;99.90
39277;DHT22;24981;48.086;-1.686;2022-08-19T08:19:12;20.60;99.90
39277;DHT22;24981;48.086;-1.686;2022-08-19T08:21:42;20.80;99.90
39277;DHT22;24981;48.086;-1.686;2022-08-19T08:24:09;20.90;99.90
39277;DHT22;24981;48.086;-1.686;2022-08-19T08:26:36;20.90;99.90
39277;DHT22;24981;48.086;-1.686;2022-08-19T08:29:04;21.00;99.90
39277;DHT22;24981;48.086;-1.686;2022-08-19T08:31:33;21.10;99.90
39277;DHT22;24981;48.086;-1.686;2022-08-19T08:34:00;21.20;99.90
39277;DHT22;24981;48.086;-1.686;2022-08-19T08:36:27;21.30;99.90
39277;DHT22;24981;48.086;-1.686;2022-08-19T08:38:56;21.30;99.90
39277;DHT22;24981;48.086;-1.686;2022-08-19T08:41:34;21.30;99.90
39277;DHT22;24981;48.086;-1.686;2022-08-19T08:44:03;21.30;99.90
39277;DHT22;24981;48.086;-1.686;2022-08-19T08:46:37;21.30;99.90
39277;DHT22;24981;48.086;-1.686;2022-08-19T08:49:18;21.40;99.90
39277;DHT22;24981;48.086;-1.686;2022-08-19T08:51:50;21.30;99.90
39277;DHT22;24981;48.086;-1.686;2022-08-19T08:54:24;21.40;99.90
39277;DHT22;24981;48.086;-1.686;2022-08-19T08:56:55;21.40;99.90
39277;DHT22;24981;48.086;-1.686;2022-08-19T08:59:31;21.60;99.90
39277;DHT22;24981;48.086;-1.686;2022-08-19T09:02:00;22.00;99.90
39277;DHT22;24981;48.086;-1.686;2022-08-19T09:04:28;22.10;99.90
39277;DHT22;24981;48.086;-1.686;2022-08-19T09:07:15;22.40;99.90
39277;DHT22;24981;48.086;-1.686;2022-08-19T09:09:48;23.10;99.90
39277;DHT22;24981;48.086;-1.686;2022-08-19T09:12:22;23.30;99.90
39277;DHT22;24981;48.086;-1.686;2022-08-19T09:14:54;23.40;99.90
39277;DHT22;24981;48.086;-1.686;2022-08-19T09:17:25;23.90;99.90
39277;DHT22;24981;48.086;-1.686;2022-08-19T09:19:58;23.90;99.90
39277;DHT22;24981;48.086;-1.686;2022-08-19T09:22:26;24.00;99.90
39277;DHT22;24981;48.086;-1.686;2022-08-19T09:24:55;24.00;99.90
39277;DHT22;24981;48.086;-1.686;2022-08-19T09:27:24;23.90;99.90
39277;DHT22;24981;48.086;-1.686;2022-08-19T09:29:51;23.90;99.90
39277;DHT22;24981;48.086;-1.686;2022-08-19T09:32:19;23.60;99.90
39277;DHT22;24981;48.086;-1.686;2022-08-19T09:34:46;23.30;99.90
39277;DHT22;24981;48.086;-1.686;2022-08-19T09:37:13;23.20;99.90
39277;DHT22;24981;48.086;-1.686;2022-08-19T09:39:41;23.10;99.90
39277;DHT22;24981;48.086;-1.686;2022-08-19T09:42:10;23.20;99.90
39277;DHT22;24981;48.086;-1.686;2022-08-19T09:44:40;23.20;99.90
39277;DHT22;24981;48.086;-1.686;2022-08-19T09:47:08;23.20;99.90
39277;DHT22;24981;48.086;-1.686;2022-08-19T09:49:35;23.10;99.90
39277;DHT22;24981;48.086;-1.686;2022-08-19T09:52:03;23.10;99.90
39277;DHT22;24981;48.086;-1.686;2022-08-19T09:54:30;23.00;99.90
39277;DHT22;24981;48.086;-1.686;2022-08-19T09:56:58;23.10;99.90
39277;DHT22;24981;48.086;-1.686;2022-08-19T09:59:27;23.40;99.90
39277;DHT22;24981;48.086;-1.686;2022-08-19T10:01:55;23.40;99.90
39277;DHT22;24981;48.086;-1.686;2022-08-19T10:04:22;23.40;99.90
39277;DHT22;24981;48.086;-1.686;2022-08-19T10:07:09;23.50;99.90
39277;DHT22;24981;48.086;-1.686;2022-08-19T10:09:36;23.30;99.90
39277;DHT22;24981;48.086;-1.686;2022-08-19T10:12:04;23.20;99.90
39277;DHT22;24981;48.086;-1.686;2022-08-19T10:14:33;23.20;99.90
39277;DHT22;24981;48.086;-1.686;2022-08-19T10:17:01;23.20;99.90
39277;DHT22;24981;48.086;-1.686;2022-08-19T10:19:29;23.30;99.90
39277;DHT22;24981;48.086;-1.686;2022-08-19T10:22:03;23.50;99.90
39277;DHT22;24981;48.086;-1.686;2022-08-19T10:24:30;23.60;99.90
39277;DHT22;24981;48.086;-1.686;2022-08-19T10:26:57;23.60;99.90
39277;DHT22;24981;48.086;-1.686;2022-08-19T10:29:24;23.60;99.90
39277;DHT22;24981;48.086;-1.686;2022-08-19T10:31:55;23.40;99.90
39277;DHT22;24981;48.086;-1.686;2022-08-19T10:34:22;23.20;99.90
39277;DHT22;24981;48.086;-1.686;2022-08-19T10:36:49;23.20;99.90
39277;DHT22;24981;48.086;-1.686;2022-08-19T10:39:16;23.10;99.90
39277;DHT22;24981;48.086;-1.686;2022-08-19T10:41:43;23.20;99.90
39277;DHT22;24981;48.086;-1.686;2022-08-19T10:44:12;23.20;99.90
39277;DHT22;24981;48.086;-1.686;2022-08-19T10:46:41;23.10;99.90
39277;DHT22;24981;48.086;-1.686;2022-08-19T10:49:11;23.20;99.90
39277;DHT22;24981;48.086;-1.686;2022-08-19T10:51:39;23.40;99.90
39277;DHT22;24981;48.086;-1.686;2022-08-19T10:54:23;23.50;99.90
39277;DHT22;24981;48.086;-1.686;2022-08-19T10:57:11;23.50;99.90
39277;DHT22;24981;48.086;-1.686;2022-08-19T10:59:37;23.60;99.90
39277;DHT22;24981;48.086;-1.686;2022-08-19T11:02:07;23.60;99.90
39277;DHT22;24981;48.086;-1.686;2022-08-19T11:04:37;23.60;99.90
39277;DHT22;24981;48.086;-1.686;2022-08-19T11:07:05;23.80;99.90
39277;DHT22;24981;48.086;-1.686;2022-08-19T11:09:38;23.80;99.90
39277;DHT22;24981;48.086;-1.686;2022-08-19T11:12:06;23.90;99.90
39277;DHT22;24981;48.086;-1.686;2022-08-19T11:14:34;23.90;99.90
39277;DHT22;24981;48.086;-1.686;2022-08-19T11:17:01;23.90;99.90
39277;DHT22;24981;48.086;-1.686;2022-08-19T11:19:28;24.00;99.90
39277;DHT22;24981;48.086;-1.686;2022-08-19T11:21:57;24.00;99.90
39277;DHT22;24981;48.086;-1.686;2022-08-19T11:24:27;24.00;99.90
39277;DHT22;24981;48.086;-1.686;2022-08-19T11:27:01;24.10;99.90
39277;DHT22;24981;48.086;-1.686;2022-08-19T11:29:30;24.30;99.90
39277;DHT22;24981;48.086;-1.686;2022-08-19T11:31:57;24.40;99.90
39277;DHT22;24981;48.086;-1.686;2022-08-19T11:34:26;24.40;99.90
39277;DHT22;24981;48.086;-1.686;2022-08-19T11:36:55;24.50;99.90
39277;DHT22;24981;48.086;-1.686;2022-08-19T11:39:27;24.50;99.90
39277;DHT22;24981;48.086;-1.686;2022-08-19T11:41:55;24.60;99.90
39277;DHT22;24981;48.086;-1.686;2022-08-19T11:44:22;24.50;99.90
39277;DHT22;24981;48.086;-1.686;2022-08-19T11:46:49;24.20;99.90
39277;DHT22;24981;48.086;-1.686;2022-08-19T11:49:19;24.00;99.90
39277;DHT22;24981;48.086;-1.686;2022-08-19T11:51:46;23.90;99.90
39277;DHT22;24981;48.086;-1.686;2022-08-19T11:54:15;23.70;99.90
39277;DHT22;24981;48.086;-1.686;2022-08-19T11:56:44;23.60;99.90
39277;DHT22;24981;48.086;-1.686;2022-08-19T11:59:13;23.50;99.90
39277;DHT22;24981;48.086;-1.686;2022-08-19T12:01:40;23.50;99.90
39277;DHT22;24981;48.086;-1.686;2022-08-19T12:04:08;23.30;99.90
39277;DHT22;24981;48.086;-1.686;2022-08-19T12:06:38;23.30;99.90
39277;DHT22;24981;48.086;-1.686;2022-08-19T12:09:07;23.30;99.90
39277;DHT22;24981;48.086;-1.686;2022-08-19T12:11:35;23.10;99.90
39277;DHT22;24981;48.086;-1.686;2022-08-19T12:14:05;23.20;99.90
39277;DHT22;24981;48.086;-1.686;2022-08-19T12:16:32;23.20;99.90
39277;DHT22;24981;48.086;-1.686;2022-08-19T12:19:00;23.10;99.90
39277;DHT22;24981;48.086;-1.686;2022-08-19T12:21:31;22.90;99.90
39277;DHT22;24981;48.086;-1.686;2022-08-19T12:23:59;22.70;99.90
39277;DHT22;24981;48.086;-1.686;2022-08-19T12:26:28;22.50;99.90
39277;DHT22;24981;48.086;-1.686;2022-08-19T12:28:57;22.40;99.90
39277;DHT22;24981;48.086;-1.686;2022-08-19T12:31:27;22.30;99.90
39277;DHT22;24981;48.086;-1.686;2022-08-19T12:33:54;22.30;99.90
39277;DHT22;24981;48.086;-1.686;2022-08-19T12:36:22;22.50;99.90
39277;DHT22;24981;48.086;-1.686;2022-08-19T12:38:51;22.60;99.90
39277;DHT22;24981;48.086;-1.686;2022-08-19T12:41:18;22.80;99.90
39277;DHT22;24981;48.086;-1.686;2022-08-19T12:43:48;22.90;99.90
39277;DHT22;24981;48.086;-1.686;2022-08-19T12:46:16;23.20;99.90
39277;DHT22;24981;48.086;-1.686;2022-08-19T12:48:46;23.10;99.90
39277;DHT22;24981;48.086;-1.686;2022-08-19T12:51:16;23.10;99.90
39277;DHT22;24981;48.086;-1.686;2022-08-19T12:53:45;23.10;99.90
39277;DHT22;24981;48.086;-1.686;2022-08-19T12:56:13;22.90;99.90
39277;DHT22;24981;48.086;-1.686;2022-08-19T12:58:41;22.80;99.90
39277;DHT22;24981;48.086;-1.686;2022-08-19T13:01:10;22.90;99.90
39277;DHT22;24981;48.086;-1.686;2022-08-19T13:03:37;22.90;99.90
39277;DHT22;24981;48.086;-1.686;2022-08-19T13:06:06;22.90;99.90
39277;DHT22;24981;48.086;-1.686;2022-08-19T13:08:33;22.90;99.90
39277;DHT22;24981;48.086;-1.686;2022-08-19T13:11:08;22.90;99.90
39277;DHT22;24981;48.086;-1.686;2022-08-19T13:13:36;23.00;99.90
39277;DHT22;24981;48.086;-1.686;2022-08-19T13:16:07;22.90;99.90
39277;DHT22;24981;48.086;-1.686;2022-08-19T13:18:35;22.80;99.90
39277;DHT22;24981;48.086;-1.686;2022-08-19T13:21:03;22.70;99.90
39277;DHT22;24981;48.086;-1.686;2022-08-19T13:23:32;22.70;99.90
39277;DHT22;24981;48.086;-1.686;2022-08-19T13:26:00;22.70;99.90
39277;DHT22;24981;48.086;-1.686;2022-08-19T13:28:27;22.70;99.90
39277;DHT22;24981;48.086;-1.686;2022-08-19T13:31:15;22.60;99.90
39277;DHT22;24981;48.086;-1.686;2022-08-19T13:34:00;22.70;99.90
39277;DHT22;24981;48.086;-1.686;2022-08-19T13:36:27;22.70;99.90
39277;DHT22;24981;48.086;-1.686;2022-08-19T13:38:55;22.70;99.90
39277;DHT22;24981;48.086;-1.686;2022-08-19T13:41:22;22.60;99.90
39277;DHT22;24981;48.086;-1.686;2022-08-19T13:43:49;22.60;99.90
39277;DHT22;24981;48.086;-1.686;2022-08-19T13:46:16;22.60;99.90
39277;DHT22;24981;48.086;-1.686;2022-08-19T13:48:43;22.60;99.90
39277;DHT22;24981;48.086;-1.686;2022-08-19T13:51:10;22.60;99.90
39277;DHT22;24981;48.086;-1.686;2022-08-19T13:53:37;22.50;99.90
39277;DHT22;24981;48.086;-1.686;2022-08-19T13:56:07;22.50;99.90
39277;DHT22;24981;48.086;-1.686;2022-08-19T13:58:35;22.50;99.90
39277;DHT22;24981;48.086;-1.686;2022-08-19T14:01:03;22.40;99.90
39277;DHT22;24981;48.086;-1.686;2022-08-19T14:03:31;22.50;99.90
39277;DHT22;24981;48.086;-1.686;2022-08-19T14:05:59;22.40;99.90
39277;DHT22;24981;48.086;-1.686;2022-08-19T14:08:27;22.30;99.90
39277;DHT22;24981;48.086;-1.686;2022-08-19T14:10:54;22.20;99.90
39277;DHT22;24981;48.086;-1.686;2022-08-19T14:13:23;22.10;99.90
39277;DHT22;24981;48.086;-1.686;2022-08-19T14:15:51;21.90;99.90
39277;DHT22;24981;48.086;-1.686;2022-08-19T14:18:18;21.60;99.90
39277;DHT22;24981;48.086;-1.686;2022-08-19T14:20:45;21.50;99.90
39277;DHT22;24981;48.086;-1.686;2022-08-19T14:23:12;21.50;99.90
39277;DHT22;24981;48.086;-1.686;2022-08-19T14:25:39;21.50;99.90
39277;DHT22;24981;48.086;-1.686;2022-08-19T14:28:06;21.50;99.90
39277;DHT22;24981;48.086;-1.686;2022-08-19T14:30:36;21.50;99.90
39277;DHT22;24981;48.086;-1.686;2022-08-19T14:33:05;21.40;99.90
39277;DHT22;24981;48.086;-1.686;2022-08-19T14:35:33;21.40;99.90
39277;DHT22;24981;48.086;-1.686;2022-08-19T14:38:01;21.40;99.90
39277;DHT22;24981;48.086;-1.686;2022-08-19T14:40:29;21.30;99.90
39277;DHT22;24981;48.086;-1.686;2022-08-19T14:42:59;21.30;99.90
39277;DHT22;24981;48.086;-1.686;2022-08-19T14:45:30;21.30;99.90
39277;DHT22;24981;48.086;-1.686;2022-08-19T14:47:59;21.40;99.90
39277;DHT22;24981;48.086;-1.686;2022-08-19T14:50:26;21.40;99.90
39277;DHT22;24981;48.086;-1.686;2022-08-19T14:52:58;21.40;99.90
39277;DHT22;24981;48.086;-1.686;2022-08-19T14:55:26;21.40;99.90
39277;DHT22;24981;48.086;-1.686;2022-08-19T14:57:53;21.30;99.90
39277;DHT22;24981;48.086;-1.686;2022-08-19T15:00:21;21.20;99.90
39277;DHT22;24981;48.086;-1.686;2022-08-19T15:02:48;21.10;99.90
39277;DHT22;24981;48.086;-1.686;2022-08-19T15:05:17;21.10;99.90
39277;DHT22;24981;48.086;-1.686;2022-08-19T15:07:44;21.00;99.90
39277;DHT22;24981;48.086;-1.686;2022-08-19T15:10:12;21.00;99.90
39277;DHT22;24981;48.086;-1.686;2022-08-19T15:12:40;21.00;99.90
39277;DHT22;24981;48.086;-1.686;2022-08-19T15:15:10;21.10;99.90
39277;DHT22;24981;48.086;-1.686;2022-08-19T15:17:38;21.10;99.90
39277;DHT22;24981;48.086;-1.686;2022-08-19T15:20:07;20.90;99.90
39277;DHT22;24981;48.086;-1.686;2022-08-19T15:22:36;20.90;99.90
39277;DHT22;24981;48.086;-1.686;2022-08-19T15:25:04;20.90;99.90
39277;DHT22;24981;48.086;-1.686;2022-08-19T15:27:33;20.70;99.90
39277;DHT22;24981;48.086;-1.686;2022-08-19T15:30:01;20.70;99.90
39277;DHT22;24981;48.086;-1.686;2022-08-19T15:32:29;20.60;99.90
39277;DHT22;24981;48.086;-1.686;2022-08-19T15:34:56;20.70;99.90
39277;DHT22;24981;48.086;-1.686;2022-08-19T15:37:23;20.70;99.90
39277;DHT22;24981;48.086;-1.686;2022-08-19T15:39:51;20.70;99.90
39277;DHT22;24981;48.086;-1.686;2022-08-19T15:42:18;20.70;99.90
39277;DHT22;24981;48.086;-1.686;2022-08-19T15:44:46;20.60;99.90
39277;DHT22;24981;48.086;-1.686;2022-08-19T15:47:14;20.60;99.90
39277;DHT22;24981;48.086;-1.686;2022-08-19T15:49:40;20.50;99.90
39277;DHT22;24981;48.086;-1.686;2022-08-19T15:52:07;20.50;99.90
39277;DHT22;24981;48.086;-1.686;2022-08-19T15:54:34;20.40;99.90
39277;DHT22;24981;48.086;-1.686;2022-08-19T15:57:03;20.30;99.90
39277;DHT22;24981;48.086;-1.686;2022-08-19T15:59:48;20.30;99.90
39277;DHT22;24981;48.086;-1.686;2022-08-19T16:02:46;20.20;99.90
39277;DHT22;24981;48.086;-1.686;2022-08-19T16:05:31;20.20;99.90
39277;DHT22;24981;48.086;-1.686;2022-08-19T16:08:15;20.10;99.90
39277;DHT22;24981;48.086;-1.686;2022-08-19T16:10:43;20.00;99.90
39277;DHT22;24981;48.086;-1.686;2022-08-19T16:13:11;20.00;99.90
39277;DHT22;24981;48.086;-1.686;2022-08-19T16:15:38;20.00;99.90
39277;DHT22;24981;48.086;-1.686;2022-08-19T16:18:09;20.00;99.90
39277;DHT22;24981;48.086;-1.686;2022-08-19T16:20:36;20.00;99.90
39277;DHT22;24981;48.086;-1.686;2022-08-19T16:23:03;19.90;99.90
39277;DHT22;24981;48.086;-1.686;2022-08-19T16:25:30;20.00;99.90
39277;DHT22;24981;48.086;-1.686;2022-08-19T16:27:58;19.90;99.90
39277;DHT22;24981;48.086;-1.686;2022-08-19T16:30:27;20.00;99.90
39277;DHT22;24981;48.086;-1.686;2022-08-19T16:32:54;20.00;99.90
39277;DHT22;24981;48.086;-1.686;2022-08-19T16:35:21;20.00;99.90
39277;DHT22;24981;48.086;-1.686;2022-08-19T16:37:48;19.90;99.90
39277;DHT22;24981;48.086;-1.686;2022-08-19T16:40:15;19.90;99.90
39277;DHT22;24981;48.086;-1.686;2022-08-19T16:42:42;19.90;99.90
39277;DHT22;24981;48.086;-1.686;2022-08-19T16:45:09;19.90;99.90
39277;DHT22;24981;48.086;-1.686;2022-08-19T16:47:38;19.90;99.90
39277;DHT22;24981;48.086;-1.686;2022-08-19T16:50:05;19.80;99.90
39277;DHT22;24981;48.086;-1.686;2022-08-19T16:52:33;19.70;99.90
39277;DHT22;24981;48.086;-1.686;2022-08-19T16:55:01;19.60;99.90
39277;DHT22;24981;48.086;-1.686;2022-08-19T16:57:28;19.50;99.90
39277;DHT22;24981;48.086;-1.686;2022-08-19T16:59:56;19.50;99.90
39277;DHT22;24981;48.086;-1.686;2022-08-19T17:02:24;19.60;99.90
39277;DHT22;24981;48.086;-1.686;2022-08-19T17:04:53;19.60;99.90
39277;DHT22;24981;48.086;-1.686;2022-08-19T17:07:20;19.60;99.90
39277;DHT22;24981;48.086;-1.686;2022-08-19T17:09:47;19.70;99.90
39277;DHT22;24981;48.086;-1.686;2022-08-19T17:12:15;19.70;99.90
39277;DHT22;24981;48.086;-1.686;2022-08-19T17:14:41;19.80;99.90
39277;DHT22;24981;48.086;-1.686;2022-08-19T17:17:10;19.80;99.90
39277;DHT22;24981;48.086;-1.686;2022-08-19T17:19:38;19.80;99.90
39277;DHT22;24981;48.086;-1.686;2022-08-19T17:22:08;19.80;99.90
39277;DHT22;24981;48.086;-1.686;2022-08-19T17:24:35;19.80;99.90
39277;DHT22;24981;48.086;-1.686;2022-08-19T17:27:02;19.80;99.90
39277;DHT22;24981;48.086;-1.686;2022-08-19T17:29:30;19.80;99.90
39277;DHT22;24981;48.086;-1.686;2022-08-19T17:31:57;19.90;99.90
39277;DHT22;24981;48.086;-1.686;2022-08-19T17:34:24;19.90;99.90
39277;DHT22;24981;48.086;-1.686;2022-08-19T17:36:52;19.90;99.90
39277;DHT22;24981;48.086;-1.686;2022-08-19T17:39:22;19.90;99.90
39277;DHT22;24981;48.086;-1.686;2022-08-19T17:41:50;19.90;99.90
39277;DHT22;24981;48.086;-1.686;2022-08-19T17:44:17;19.90;99.90
39277;DHT22;24981;48.086;-1.686;2022-08-19T17:46:44;19.90;99.90
39277;DHT22;24981;48.086;-1.686;2022-08-19T17:49:12;20.00;99.90
39277;DHT22;24981;48.086;-1.686;2022-08-19T17:51:43;20.00;99.90
39277;DHT22;24981;48.086;-1.686;2022-08-19T17:54:14;20.10;99.90
39277;DHT22;24981;48.086;-1.686;2022-08-19T17:56:43;20.10;99.90
39277;DHT22;24981;48.086;-1.686;2022-08-19T17:59:11;20.10;99.90
39277;DHT22;24981;48.086;-1.686;2022-08-19T18:01:38;20.00;99.90
39277;DHT22;24981;48.086;-1.686;2022-08-19T18:04:04;20.10;99.90
39277;DHT22;24981;48.086;-1.686;2022-08-19T18:06:33;20.10;99.90
39277;DHT22;24981;48.086;-1.686;2022-08-19T18:09:01;20.10;99.90
39277;DHT22;24981;48.086;-1.686;2022-08-19T18:11:28;20.10;99.90
39277;DHT22;24981;48.086;-1.686;2022-08-19T18:13:56;20.20;99.90
39277;DHT22;24981;48.086;-1.686;2022-08-19T18:16:24;20.20;99.90
39277;DHT22;24981;48.086;-1.686;2022-08-19T18:18:51;20.20;99.90
39277;DHT22;24981;48.086;-1.686;2022-08-19T18:21:19;20.30;99.90
39277;DHT22;24981;48.086;-1.686;2022-08-19T18:23:46;20.10;99.90
39277;DHT22;24981;48.086;-1.686;2022-08-19T18:26:13;20.20;99.90
39277;DHT22;24981;48.086;-1.686;2022-08-19T18:28:41;20.10;99.90
39277;DHT22;24981;48.086;-1.686;2022-08-19T18:31:09;20.10;99.90
39277;DHT22;24981;48.086;-1.686;2022-08-19T18:33:36;20.10;99.90
39277;DHT22;24981;48.086;-1.686;2022-08-19T18:36:04;20.10;99.90
39277;DHT22;24981;48.086;-1.686;2022-08-19T18:38:31;20.00;99.90
39277;DHT22;24981;48.086;-1.686;2022-08-19T18:41:15;20.00;99.90
39277;DHT22;24981;48.086;-1.686;2022-08-19T18:43:59;19.90;99.90
39277;DHT22;24981;48.086;-1.686;2022-08-19T18:46:45;19.80;99.90
39277;DHT22;24981;48.086;-1.686;2022-08-19T18:49:31;19.70;99.90
39277;DHT22;24981;48.086;-1.686;2022-08-19T18:51:59;19.60;99.90
39277;DHT22;24981;48.086;-1.686;2022-08-19T18:54:28;19.50;99.90
39277;DHT22;24981;48.086;-1.686;2022-08-19T18:56:55;19.50;99.90
39277;DHT22;24981;48.086;-1.686;2022-08-19T18:59:23;19.50;99.90
39277;DHT22;24981;48.086;-1.686;2022-08-19T19:01:53;19.40;99.90
39277;DHT22;24981;48.086;-1.686;2022-08-19T19:04:23;19.40;99.90
39277;DHT22;24981;48.086;-1.686;2022-08-19T19:06:50;19.30;99.90
39277;DHT22;24981;48.086;-1.686;2022-08-19T19:09:21;19.30;99.90
39277;DHT22;24981;48.086;-1.686;2022-08-19T19:11:51;19.20;99.90
39277;DHT22;24981;48.086;-1.686;2022-08-19T19:14:20;19.20;99.90
39277;DHT22;24981;48.086;-1.686;2022-08-19T19:16:49;19.10;99.90
39277;DHT22;24981;48.086;-1.686;2022-08-19T19:19:18;19.00;99.90
39277;DHT22;24981;48.086;-1.686;2022-08-19T19:21:46;19.00;99.90
39277;DHT22;24981;48.086;-1.686;2022-08-19T19:24:15;19.00;99.90
39277;DHT22;24981;48.086;-1.686;2022-08-19T19:26:45;18.90;99.90
39277;DHT22;24981;48.086;-1.686;2022-08-19T19:29:12;18.90;99.90
39277;DHT22;24981;48.086;-1.686;2022-08-19T19:31:40;18.90;99.90
39277;DHT22;24981;48.086;-1.686;2022-08-19T19:34:08;18.80;99.90
39277;DHT22;24981;48.086;-1.686;2022-08-19T19:36:37;18.80;99.90
39277;DHT22;24981;48.086;-1.686;2022-08-19T19:39:04;18.80;99.90
39277;DHT22;24981;48.086;-1.686;2022-08-19T19:41:32;18.70;99.90
39277;DHT22;24981;48.086;-1.686;2022-08-19T19:44:00;18.70;99.90
39277;DHT22;24981;48.086;-1.686;2022-08-19T19:46:27;18.60;99.90
39277;DHT22;24981;48.086;-1.686;2022-08-19T19:48:55;18.60;99.90
39277;DHT22;24981;48.086;-1.686;2022-08-19T19:51:23;18.50;99.90
39277;DHT22;24981;48.086;-1.686;2022-08-19T19:53:52;18.40;99.90
39277;DHT22;24981;48.086;-1.686;2022-08-19T19:56:20;18.40;99.90
39277;DHT22;24981;48.086;-1.686;2022-08-19T19:58:48;18.40;99.90
39277;DHT22;24981;48.086;-1.686;2022-08-19T20:01:20;18.30;99.90
39277;DHT22;24981;48.086;-1.686;2022-08-19T20:03:48;18.30;99.90
39277;DHT22;24981;48.086;-1.686;2022-08-19T20:06:16;18.30;99.90
39277;DHT22;24981;48.086;-1.686;2022-08-19T20:08:44;18.20;99.90
39277;DHT22;24981;48.086;-1.686;2022-08-19T20:11:31;18.10;99.90
39277;DHT22;24981;48.086;-1.686;2022-08-19T20:14:02;18.00;99.90
39277;DHT22;24981;48.086;-1.686;2022-08-19T20:16:30;17.90;99.90
39277;DHT22;24981;48.086;-1.686;2022-08-19T20:18:59;17.90;99.90
39277;DHT22;24981;48.086;-1.686;2022-08-19T20:21:28;17.90;99.90
39277;DHT22;24981;48.086;-1.686;2022-08-19T20:23:57;17.80;99.90
39277;DHT22;24981;48.086;-1.686;2022-08-19T20:26:25;17.80;99.90
39277;DHT22;24981;48.086;-1.686;2022-08-19T20:28:53;17.70;99.90